Time;durP1;ratioP1;P1;durP2;ratioP2;P2;SDS_P1;SDS_P2;PMS_P1;PMS_P2;Temp;Humidity;BMP_temperature;BMP_pressure;BME280_temperature;BME280_humidity;BME280_pressure;Samples;Min_cycle;Max_cycle;Signal;HPM_P1;HPM_P2
2023/09/28 00:02:54;;;;;;;9.40;4.72;;;21.80;99.90;;;;;;5034017;28;20056;-72
2023/09/28 00:05:20;;;;;;;;;;;21.60;99.90;;;;;;5034512;28;20052;-72
2023/09/28 00:07:48;;;;;;;10.07;4.25;;;21.50;99.90;;;;;;5033966;28;19952;-72
2023/09/28 00:10:16;;;;;;;12.20;4.47;;;21.40;99.90;;;;;;5033757;28;20036;-72
2023/09/28 00:12:47;;;;;;;10.35;4.95;;;21.40;99.90;;;;;;5033808;28;20025;-71
2023/09/28 00:15:13;;;;;;;11.00;4.85;;;21.30;99.90;;;;;;5033358;28;20108;-71
2023/09/28 00:17:40;;;;;;;17.35;4.90;;;21.30;99.90;;;;;;5033617;28;20100;-71
2023/09/28 00:20:17;;;;;;;8.93;4.72;;;21.30;99.90;;;;;;5033893;28;20026;-72
2023/09/28 00:22:48;;;;;;;17.35;4.38;;;21.30;99.90;;;;;;5033928;28;20075;-73
2023/09/28 00:25:19;;;;;;;11.85;4.78;;;21.30;99.90;;;;;;5033648;28;20432;-70
2023/09/28 00:27:50;;;;;;;10.15;4.47;;;21.40;99.90;;;;;;5033764;28;20021;-75
2023/09/28 00:30:21;;;;;;;14.35;4.38;;;21.40;99.90;;;;;;5033472;28;20033;-70
2023/09/28 00:32:57;;;;;;;11.40;4.82;;;21.40;99.90;;;;;;5033485;28;20021;-71
2023/09/28 00:35:27;;;;;;;8.77;4.00;;;21.50;99.90;;;;;;5033438;28;20032;-72
2023/09/28 00:37:54;;;;;;;17.20;4.25;;;21.50;99.90;;;;;;5033563;28;20104;-71
2023/09/28 00:40:27;;;;;;;11.15;4.47;;;21.50;99.90;;;;;;5033354;28;20037;-72
2023/09/28 00:42:55;;;;;;;15.15;4.82;;;21.60;99.90;;;;;;5033023;28;20035;-72
2023/09/28 00:45:23;;;;;;;16.88;4.43;;;21.60;99.90;;;;;;5032999;28;20402;-71
2023/09/28 00:47:53;;;;;;;11.43;4.68;;;21.60;99.90;;;;;;5033342;28;20032;-72
2023/09/28 00:50:20;;;;;;;15.90;4.70;;;21.60;99.90;;;;;;5031593;28;20424;-71
2023/09/28 00:52:59;;;;;;;10.73;4.43;;;21.70;99.90;;;;;;5033471;28;20108;-73
2023/09/28 00:55:29;;;;;;;11.70;4.78;;;21.70;99.90;;;;;;5033405;28;20026;-72
2023/09/28 00:58:00;;;;;;;14.27;4.90;;;21.60;99.90;;;;;;5033071;28;20059;-72
2023/09/28 01:00:32;;;;;;;12.07;4.50;;;21.70;99.90;;;;;;5032615;28;20034;-72
2023/09/28 01:03:02;;;;;;;9.80;4.43;;;21.70;99.90;;;;;;5031819;28;20064;-72
2023/09/28 01:05:39;;;;;;;11.00;4.60;;;21.60;99.90;;;;;;5032766;28;20037;-72
2023/09/28 01:08:06;;;;;;;9.38;4.18;;;21.60;99.90;;;;;;5033132;28;20136;-71
2023/09/28 01:10:35;;;;;;;13.18;4.63;;;21.60;99.90;;;;;;5031386;28;20706;-72
2023/09/28 01:13:10;;;;;;;11.90;4.32;;;21.50;99.90;;;;;;5033484;28;20037;-72
2023/09/28 01:15:41;;;;;;;12.07;4.70;;;21.50;99.90;;;;;;5032563;28;20060;-73
2023/09/28 01:18:13;;;;;;;8.65;4.28;;;21.40;99.90;;;;;;5032821;28;20064;-74
2023/09/28 01:20:40;;;;;;;13.25;4.28;;;21.40;99.90;;;;;;5032449;28;20025;-73
2023/09/28 01:23:08;;;;;;;16.85;5.63;;;21.40;99.90;;;;;;5032376;28;20108;-71
2023/09/28 01:25:36;;;;;;;7.38;4.10;;;21.40;99.90;;;;;;5032460;28;20244;-72
2023/09/28 01:28:03;;;;;;;11.30;4.82;;;21.40;99.90;;;;;;5032835;28;20021;-72
2023/09/28 01:30:30;;;;;;;10.80;4.35;;;21.40;99.90;;;;;;5032054;28;20071;-72
2023/09/28 01:32:56;;;;;;;13.10;4.95;;;21.40;99.90;;;;;;5032438;28;20140;-72
2023/09/28 01:35:22;;;;;;;12.73;4.90;;;21.40;99.90;;;;;;5032625;28;20403;-72
2023/09/28 01:37:58;;;;;;;10.35;4.45;;;21.40;99.90;;;;;;5032318;28;20104;-72
2023/09/28 01:40:24;;;;;;;11.80;4.47;;;21.40;99.90;;;;;;5032147;28;20034;-71
2023/09/28 01:42:50;;;;;;;11.48;4.35;;;21.40;99.90;;;;;;5032215;28;20018;-72
2023/09/28 01:45:16;;;;;;;13.98;5.15;;;21.40;99.90;;;;;;5031966;28;20034;-71
2023/09/28 01:47:43;;;;;;;10.43;4.65;;;21.40;99.90;;;;;;5032104;28;20064;-73
2023/09/28 01:50:10;;;;;;;10.75;5.10;;;21.40;99.90;;;;;;5031782;28;20107;-72
2023/09/28 01:52:36;;;;;;;;;;;21.40;99.90;;;;;;5031037;28;20420;-73
2023/09/28 01:55:02;;;;;;;13.95;4.75;;;21.40;99.90;;;;;;5030725;28;19958;-72
2023/09/28 01:57:28;;;;;;;10.00;4.03;;;21.40;99.90;;;;;;5032702;28;20026;-72
2023/09/28 01:59:54;;;;;;;10.68;4.47;;;21.40;99.90;;;;;;5031979;28;20080;-72
2023/09/28 02:02:21;;;;;;;8.00;4.43;;;21.40;99.90;;;;;;5031953;28;20022;-72
2023/09/28 02:04:47;;;;;;;;;;;21.40;99.90;;;;;;5032663;28;20178;-72
2023/09/28 02:07:13;;;;;;;12.45;4.75;;;21.30;99.90;;;;;;5031944;28;20027;-72
2023/09/28 02:09:39;;;;;;;12.07;4.82;;;21.30;99.90;;;;;;5031918;28;20486;-73
2023/09/28 02:12:07;;;;;;;8.50;4.38;;;21.30;99.90;;;;;;5031898;28;20025;-72
2023/09/28 02:14:33;;;;;;;;;;;21.30;99.90;;;;;;5033492;28;20029;-73
2023/09/28 02:16:59;;;;;;;10.07;4.55;;;21.30;99.90;;;;;;5036048;28;20337;-72
2023/09/28 02:19:25;;;;;;;12.98;5.20;;;21.30;99.90;;;;;;5035790;28;20025;-72
2023/09/28 02:21:51;;;;;;;7.68;4.32;;;21.30;99.90;;;;;;5035952;28;20060;-72
2023/09/28 02:24:17;;;;;;;16.02;4.78;;;21.30;99.90;;;;;;5035993;28;20069;-72
2023/09/28 02:26:47;;;;;;;8.35;4.88;;;21.20;99.90;;;;;;5036128;28;20034;-72
2023/09/28 02:29:13;;;;;;;10.88;4.90;;;21.20;99.90;;;;;;5035906;28;20029;-73
2023/09/28 02:31:42;;;;;;;10.18;4.80;;;21.20;99.90;;;;;;5036008;28;20052;-72
2023/09/28 02:34:08;;;;;;;9.68;5.35;;;21.20;99.90;;;;;;5035576;28;20029;-73
2023/09/28 02:36:35;;;;;;;13.10;5.45;;;21.30;99.90;;;;;;5035856;28;20504;-72
2023/09/28 02:39:06;;;;;;;7.32;4.88;;;21.30;99.90;;;;;;5036065;28;20105;-74
2023/09/28 02:41:32;;;;;;;20.58;4.55;;;21.40;99.90;;;;;;5034310;28;20052;-73
2023/09/28 02:43:58;;;;;;;16.65;4.72;;;21.40;99.90;;;;;;5035211;28;20485;-73
2023/09/28 02:46:27;;;;;;;11.38;4.47;;;21.40;99.90;;;;;;5035954;28;20121;-73
2023/09/28 02:48:55;;;;;;;8.38;4.68;;;21.40;99.90;;;;;;5033888;28;20057;-73
2023/09/28 02:51:22;;;;;;;11.75;4.32;;;21.40;99.90;;;;;;5035296;28;20029;-72
2023/09/28 02:53:48;;;;;;;12.23;4.95;;;21.30;99.90;;;;;;5035000;28;20057;-73
2023/09/28 02:56:14;;;;;;;15.05;4.68;;;21.30;99.90;;;;;;5034768;28;20110;-73
2023/09/28 02:58:40;;;;;;;7.35;4.47;;;21.40;99.90;;;;;;5035200;28;20421;-73
2023/09/28 03:01:08;;;;;;;13.68;4.55;;;21.40;99.90;;;;;;5035155;28;20025;-72
2023/09/28 03:03:34;;;;;;;11.10;4.55;;;21.40;99.90;;;;;;5033949;28;20447;-72
2023/09/28 03:06:00;;;;;;;9.23;4.57;;;21.40;99.90;;;;;;5035345;28;20433;-72
2023/09/28 03:08:27;;;;;;;11.35;4.80;;;21.30;99.90;;;;;;5035367;28;20025;-72
2023/09/28 03:10:53;;;;;;;14.95;5.22;;;21.20;99.90;;;;;;5035174;28;20080;-72
2023/09/28 03:13:19;;;;;;;11.77;4.68;;;21.10;99.90;;;;;;5035447;28;20026;-74
2023/09/28 03:15:46;;;;;;;11.15;4.50;;;21.00;99.90;;;;;;5035469;28;20060;-72
2023/09/28 03:18:13;;;;;;;11.52;4.82;;;21.00;99.90;;;;;;5033895;28;20030;-72
2023/09/28 03:20:44;;;;;;;9.18;4.68;;;21.10;99.90;;;;;;5035102;28;20382;-73
2023/09/28 03:23:12;;;;;;;13.18;4.78;;;21.00;99.90;;;;;;5035742;28;20021;-73
2023/09/28 03:25:38;;;;;;;9.68;4.47;;;21.10;99.90;;;;;;5033304;28;20037;-73
2023/09/28 03:28:05;;;;;;;11.20;4.40;;;21.10;99.90;;;;;;5034646;28;20022;-73
2023/09/28 03:30:31;;;;;;;9.85;4.50;;;21.00;99.90;;;;;;5035683;28;20053;-73
2023/09/28 03:32:59;;;;;;;9.15;4.60;;;21.20;99.90;;;;;;5034496;28;20108;-72
2023/09/28 03:35:29;;;;;;;8.23;4.30;;;21.20;99.90;;;;;;5035447;28;20021;-73
2023/09/28 03:37:57;;;;;;;10.32;4.40;;;21.30;99.90;;;;;;5033880;28;20080;-72
2023/09/28 03:40:23;;;;;;;8.15;4.63;;;21.30;99.90;;;;;;5033868;28;20064;-72
2023/09/28 03:42:50;;;;;;;12.02;4.63;;;21.30;99.90;;;;;;5035202;28;20029;-72
2023/09/28 03:45:22;;;;;;;9.38;4.75;;;21.30;99.90;;;;;;5034996;28;20159;-73
2023/09/28 03:47:53;;;;;;;10.77;4.65;;;21.30;99.90;;;;;;5035178;28;20029;-73
2023/09/28 03:50:21;;;;;;;16.38;4.68;;;21.30;99.90;;;;;;5035681;28;20056;-72
2023/09/28 03:52:47;;;;;;;11.80;4.80;;;21.20;99.90;;;;;;5035786;28;20021;-73
2023/09/28 03:55:15;;;;;;;8.02;4.85;;;21.20;99.90;;;;;;5034938;28;20029;-72
2023/09/28 03:57:45;;;;;;;12.30;5.03;;;21.20;99.90;;;;;;5034833;28;20083;-73
2023/09/28 04:00:13;;;;;;;8.82;4.22;;;21.20;99.90;;;;;;5034773;28;20029;-72
2023/09/28 04:02:41;;;;;;;9.57;4.35;;;21.30;99.90;;;;;;5034590;28;20112;-73
2023/09/28 04:05:08;;;;;;;9.57;4.63;;;21.40;99.90;;;;;;5034820;28;20106;-72
2023/09/28 04:07:34;;;;;;;;;;;21.40;99.90;;;;;;5034872;28;20037;-72
2023/09/28 04:10:00;;;;;;;11.57;4.47;;;21.40;99.90;;;;;;5034674;28;19916;-73
2023/09/28 04:12:28;;;;;;;10.25;4.25;;;21.50;99.90;;;;;;5035022;28;20021;-73
2023/09/28 04:14:55;;;;;;;11.18;5.88;;;21.50;99.90;;;;;;5034610;28;20041;-72
2023/09/28 04:17:21;;;;;;;9.43;4.40;;;21.40;99.90;;;;;;5035018;28;20376;-72
2023/09/28 04:19:48;;;;;;;9.50;5.15;;;21.40;99.90;;;;;;5035445;28;20033;-72
2023/09/28 04:22:14;;;;;;;9.27;5.60;;;21.40;99.90;;;;;;5034740;28;20030;-73
2023/09/28 04:24:40;;;;;;;12.07;5.18;;;21.40;99.90;;;;;;5034769;28;20072;-72
2023/09/28 04:27:08;;;;;;;14.85;4.97;;;21.30;99.90;;;;;;5034447;28;20021;-73
2023/09/28 04:29:35;;;;;;;12.30;5.05;;;21.30;99.90;;;;;;5034928;28;20048;-74
2023/09/28 04:32:01;;;;;;;9.57;4.72;;;21.20;99.90;;;;;;5034643;28;20017;-72
2023/09/28 04:34:29;;;;;;;17.27;5.28;;;21.30;99.90;;;;;;5034864;28;20033;-72
2023/09/28 04:36:57;;;;;;;10.70;4.38;;;21.20;99.90;;;;;;5034632;28;20029;-72
2023/09/28 04:39:24;;;;;;;13.25;4.57;;;21.30;99.90;;;;;;5035022;28;20057;-74
2023/09/28 04:41:54;;;;;;;11.23;4.40;;;21.20;99.90;;;;;;5034365;28;20025;-73
2023/09/28 04:44:23;;;;;;;10.50;4.35;;;21.10;99.90;;;;;;5034888;28;20087;-74
2023/09/28 04:46:50;;;;;;;10.38;4.50;;;21.00;99.90;;;;;;5034878;28;20029;-72
2023/09/28 04:49:19;;;;;;;7.93;4.70;;;21.00;99.90;;;;;;5034060;28;20045;-73
2023/09/28 04:51:46;;;;;;;9.25;4.65;;;20.90;99.90;;;;;;5033206;28;20382;-73
2023/09/28 04:54:12;;;;;;;14.32;4.78;;;20.90;99.90;;;;;;5034223;28;20021;-72
2023/09/28 04:56:40;;;;;;;10.73;4.88;;;20.90;99.90;;;;;;5034425;28;20029;-73
2023/09/28 04:59:08;;;;;;;10.77;4.57;;;20.90;99.90;;;;;;5032779;28;20492;-73
2023/09/28 05:01:34;;;;;;;15.20;5.00;;;20.90;99.90;;;;;;5033699;28;20470;-73
2023/09/28 05:04:00;;;;;;;10.55;4.40;;;21.00;99.90;;;;;;5033456;28;20536;-73
2023/09/28 05:06:27;;;;;;;12.98;4.75;;;21.00;99.90;;;;;;5032759;28;20045;-72
2023/09/28 05:08:53;;;;;;;;;;;21.00;99.90;;;;;;5034054;28;20422;-72
2023/09/28 05:11:19;;;;;;;15.88;4.78;;;21.10;99.90;;;;;;5033632;28;19909;-73
2023/09/28 05:13:45;;;;;;;12.43;5.03;;;21.10;99.90;;;;;;5033334;28;20410;-71
2023/09/28 05:16:11;;;;;;;10.50;4.70;;;21.10;99.90;;;;;;5033160;28;20025;-72
2023/09/28 05:18:38;;;;;;;14.90;4.32;;;21.20;99.90;;;;;;5033785;28;20112;-72
2023/09/28 05:21:05;;;;;;;16.35;4.68;;;21.20;99.90;;;;;;5031885;28;20504;-73
2023/09/28 05:23:30;;;;;;;;;;;21.20;99.90;;;;;;5032160;28;20025;-72
2023/09/28 05:25:57;;;;;;;7.63;4.30;;;21.20;99.90;;;;;;5033251;28;19915;-73
2023/09/28 05:28:23;;;;;;;10.68;5.10;;;21.30;99.90;;;;;;5033031;28;20018;-73
2023/09/28 05:30:49;;;;;;;16.25;5.00;;;21.40;99.90;;;;;;5032301;28;20128;-72
2023/09/28 05:33:16;;;;;;;14.30;4.22;;;21.40;99.90;;;;;;5032862;28;20036;-72
2023/09/28 05:35:43;;;;;;;13.13;4.82;;;21.50;99.90;;;;;;5032539;28;20022;-72
2023/09/28 05:38:10;;;;;;;11.13;4.40;;;21.60;99.90;;;;;;5032489;28;20028;-72
2023/09/28 05:40:36;;;;;;;8.35;4.30;;;22.00;99.90;;;;;;5032622;28;20105;-73
2023/09/28 05:43:02;;;;;;;12.38;4.43;;;22.70;99.90;;;;;;5032818;28;20403;-73
2023/09/28 05:45:28;;;;;;;13.35;4.55;;;23.60;99.90;;;;;;5032105;28;20033;-73
2023/09/28 05:47:54;;;;;;;10.35;4.43;;;24.20;99.90;;;;;;5030987;28;20030;-73
2023/09/28 05:50:20;;;;;;;10.07;4.45;;;24.80;99.90;;;;;;5031742;28;20034;-73
2023/09/28 05:52:48;;;;;;;13.75;4.32;;;25.20;99.90;;;;;;5031962;28;20025;-72
2023/09/28 05:55:15;;;;;;;6.72;4.15;;;25.40;99.90;;;;;;5030134;28;20025;-74
2023/09/28 05:57:41;;;;;;;12.85;4.80;;;25.80;99.90;;;;;;5031606;28;20058;-73
2023/09/28 06:00:09;;;;;;;13.43;4.05;;;26.30;99.90;;;;;;5031154;28;20521;-72
2023/09/28 06:02:36;;;;;;;13.52;4.28;;;25.70;99.90;;;;;;5030556;28;20308;-74
2023/09/28 06:05:02;;;;;;;8.93;3.97;;;25.60;99.90;;;;;;5029802;28;20037;-74
2023/09/28 06:07:28;;;;;;;11.68;4.20;;;25.60;99.90;;;;;;5030435;28;20032;-74
2023/09/28 06:09:54;;;;;;;9.63;3.90;;;25.60;99.90;;;;;;5031322;28;20075;-72
2023/09/28 06:12:21;;;;;;;12.82;4.30;;;25.80;99.90;;;;;;5031279;28;20064;-74
2023/09/28 06:14:47;;;;;;;12.60;4.35;;;26.20;99.90;;;;;;5031270;28;20033;-74
2023/09/28 06:17:13;;;;;;;9.90;4.22;;;26.60;99.90;;;;;;5031479;28;20482;-73
2023/09/28 06:19:39;;;;;;;13.38;4.45;;;26.80;99.90;;;;;;5030760;28;20033;-73
2023/09/28 06:22:09;;;;;;;14.52;4.03;;;27.20;99.90;;;;;;5030943;28;20049;-73
2023/09/28 06:24:40;;;;;;;9.73;3.78;;;27.50;99.90;;;;;;5031587;28;20549;-72
2023/09/28 06:27:06;;;;;;;10.27;4.05;;;27.80;99.90;;;;;;5031178;28;20109;-73
2023/09/28 06:29:32;;;;;;;13.15;3.95;;;28.10;99.90;;;;;;5031079;28;20053;-74
2023/09/28 06:31:59;;;;;;;;;;;27.70;99.90;;;;;;5031214;28;20131;-73
2023/09/28 06:34:25;;;;;;;8.63;4.28;;;28.10;99.90;;;;;;5030615;28;19987;-72
2023/09/28 06:36:53;;;;;;;11.32;4.28;;;27.90;99.90;;;;;;5031107;28;20465;-74
2023/09/28 06:39:19;;;;;;;11.98;4.35;;;28.20;99.90;;;;;;5030903;28;20033;-72
2023/09/28 06:41:45;;;;;;;12.38;4.10;;;28.60;99.90;;;;;;5030763;28;20181;-72
2023/09/28 06:44:11;;;;;;;9.38;3.88;;;28.60;99.90;;;;;;5030450;28;20120;-73
2023/09/28 06:46:37;;;;;;;8.93;4.43;;;28.80;99.90;;;;;;5030865;28;20489;-73
2023/09/28 06:49:06;;;;;;;10.68;4.53;;;27.70;99.90;;;;;;5029230;28;20219;-72
2023/09/28 06:51:32;;;;;;;11.05;4.20;;;27.10;99.90;;;;;;5030615;28;20551;-72
2023/09/28 06:53:59;;;;;;;;;;;26.40;99.90;;;;;;5031232;28;20104;-74
2023/09/28 06:56:26;;;;;;;12.02;4.78;;;26.40;99.90;;;;;;5031044;28;19906;-73
2023/09/28 06:58:53;;;;;;;15.40;4.47;;;26.80;99.90;;;;;;5029045;28;20074;-74
2023/09/28 07:01:19;;;;;;;9.10;4.07;;;27.20;99.90;;;;;;5032468;28;20385;-73
2023/09/28 07:03:45;;;;;;;20.75;4.47;;;27.00;99.90;;;;;;5032805;28;20025;-72
2023/09/28 07:06:12;;;;;;;7.03;3.85;;;26.90;99.90;;;;;;5032896;28;20029;-73
2023/09/28 07:08:38;;;;;;;14.18;4.28;;;26.80;99.90;;;;;;5034403;28;20045;-74
2023/09/28 07:11:04;;;;;;;7.88;4.13;;;27.20;99.90;;;;;;5032644;28;20080;-74
2023/09/28 07:13:31;;;;;;;9.63;4.50;;;28.40;99.90;;;;;;5033977;28;20131;-73
2023/09/28 07:15:57;;;;;;;13.45;4.00;;;29.20;99.90;;;;;;5032590;28;20055;-72
2023/09/28 07:18:23;;;;;;;;;;;29.60;99.90;;;;;;5034974;28;20034;-76
2023/09/28 07:20:51;;;;;;;12.20;4.13;;;29.10;99.90;;;;;;5033068;28;19905;-75
2023/09/28 07:23:17;;;;;;;13.82;4.10;;;29.40;99.90;;;;;;5034077;28;20104;-75
2023/09/28 07:25:44;;;;;;;11.80;4.15;;;29.90;99.90;;;;;;5034233;28;20030;-74
2023/09/28 07:28:11;;;;;;;13.77;4.35;;;29.90;99.90;;;;;;5033991;28;20181;-73
2023/09/28 07:30:36;;;;;;;;;;;29.30;99.90;;;;;;5034213;28;20030;-74
2023/09/28 07:33:03;;;;;;;11.80;4.20;;;28.40;99.90;;;;;;5034250;28;19912;-74
2023/09/28 07:35:29;;;;;;;9.57;3.70;;;27.60;99.90;;;;;;5034052;28;20036;-72
2023/09/28 07:37:55;;;;;;;9.48;4.20;;;27.80;99.90;;;;;;5033827;28;20037;-74
2023/09/28 07:40:24;;;;;;;10.30;4.25;;;28.60;99.90;;;;;;5034389;28;20113;-73
2023/09/28 07:42:51;;;;;;;8.38;3.90;;;29.20;99.90;;;;;;5034138;28;20030;-73
2023/09/28 07:45:18;;;;;;;9.38;3.80;;;29.30;99.90;;;;;;5033532;28;20037;-73
2023/09/28 07:47:44;;;;;;;11.63;3.92;;;29.30;99.90;;;;;;5031756;28;20501;-75
2023/09/28 07:50:11;;;;;;;10.27;3.67;;;29.90;99.90;;;;;;5033186;28;20050;-73
2023/09/28 07:52:38;;;;;;;17.50;3.75;;;29.70;99.90;;;;;;5033071;28;20117;-73
2023/09/28 07:55:05;;;;;;;14.98;3.75;;;29.60;99.90;;;;;;5033559;28;20026;-73
2023/09/28 07:57:32;;;;;;;15.85;3.78;;;29.60;99.90;;;;;;5032969;28;20040;-73
2023/09/28 07:59:59;;;;;;;10.90;3.58;;;29.80;99.90;;;;;;5032710;28;20078;-73
2023/09/28 08:02:27;;;;;;;15.70;3.83;;;29.70;99.90;;;;;;5032677;28;20084;-73
2023/09/28 08:04:53;;;;;;;13.20;3.88;;;29.70;99.90;;;;;;5031515;28;20397;-74
2023/09/28 08:07:19;;;;;;;;;;;29.80;99.90;;;;;;5033663;28;20528;-73
2023/09/28 08:09:47;;;;;;;12.02;3.60;;;29.70;99.90;;;;;;5032890;28;20044;-73
2023/09/28 08:12:13;;;;;;;12.80;3.80;;;29.60;99.90;;;;;;5030925;28;20049;-72
2023/09/28 08:14:40;;;;;;;10.43;3.55;;;29.60;99.90;;;;;;5032814;28;20033;-73
2023/09/28 08:17:09;;;;;;;9.02;3.58;;;29.10;99.90;;;;;;5032836;28;20109;-72
2023/09/28 08:19:36;;;;;;;10.65;3.45;;;28.80;99.90;;;;;;5032936;28;20338;-72
2023/09/28 08:22:03;;;;;;;17.48;3.90;;;28.30;99.90;;;;;;5033217;28;20014;-73
2023/09/28 08:24:30;;;;;;;13.05;3.92;;;28.90;99.90;;;;;;5033100;28;20246;-72
2023/09/28 08:26:56;;;;;;;13.73;3.75;;;29.60;99.90;;;;;;5032954;28;20180;-72
2023/09/28 08:29:22;;;;;;;9.57;3.63;;;29.80;99.90;;;;;;5031360;28;20026;-74
2023/09/28 08:31:48;;;;;;;9.93;3.25;;;30.10;99.90;;;;;;5032630;28;20044;-73
2023/09/28 08:34:14;;;;;;;8.80;3.65;;;30.50;99.90;;;;;;5032681;28;20032;-74
2023/09/28 08:36:42;;;;;;;10.13;3.75;;;30.30;99.90;;;;;;5032661;28;20048;-73
2023/09/28 08:39:08;;;;;;;8.75;3.30;;;30.30;99.90;;;;;;5031270;28;20029;-72
2023/09/28 08:41:44;;;;;;;8.05;3.22;;;30.60;99.90;;;;;;5032866;28;20048;-73
2023/09/28 08:44:12;;;;;;;11.90;3.67;;;30.10;99.90;;;;;;5032423;28;20045;-72
2023/09/28 08:46:39;;;;;;;11.45;4.40;;;29.50;99.90;;;;;;5031916;28;20026;-72
2023/09/28 08:49:10;;;;;;;15.82;4.28;;;29.30;99.90;;;;;;5031772;28;20065;-72
2023/09/28 08:51:38;;;;;;;15.32;4.53;;;28.80;99.90;;;;;;5032289;28;20033;-73
2023/09/28 08:54:05;;;;;;;10.65;4.28;;;28.80;99.90;;;;;;5032400;28;20034;-73
2023/09/28 08:56:42;;;;;;;9.95;4.35;;;29.00;99.90;;;;;;5032167;28;20048;-73
2023/09/28 08:59:09;;;;;;;11.90;4.82;;;29.20;99.90;;;;;;5031999;28;20022;-73
2023/09/28 09:01:38;;;;;;;18.02;4.55;;;29.50;99.90;;;;;;5032067;28;20041;-74
2023/09/28 09:04:05;;;;;;;11.50;4.68;;;29.70;99.90;;;;;;5032349;28;20124;-73
2023/09/28 09:06:31;;;;;;;;;;;29.90;99.90;;;;;;5032454;28;20547;-73
2023/09/28 09:09:01;;;;;;;16.27;5.30;;;29.90;99.90;;;;;;5032047;28;19909;-75
2023/09/28 09:11:31;;;;;;;17.02;5.15;;;29.60;99.90;;;;;;5031981;28;20026;-72
2023/09/28 09:13:58;;;;;;;13.02;4.50;;;29.60;99.90;;;;;;5031501;28;20018;-73
2023/09/28 09:16:25;;;;;;;15.25;4.53;;;29.80;99.90;;;;;;5030501;28;20120;-73
2023/09/28 09:18:53;;;;;;;14.10;4.28;;;29.90;99.90;;;;;;5030140;28;20037;-73
2023/09/28 09:21:20;;;;;;;12.27;5.30;;;29.60;99.90;;;;;;5031357;28;20145;-73
2023/09/28 09:24:18;;;;;;;13.52;4.32;;;29.60;99.90;;;;;;5031265;28;20026;-73
2023/09/28 09:26:46;;;;;;;9.98;4.03;;;29.60;99.90;;;;;;5031612;28;20037;-73
2023/09/28 09:29:14;;;;;;;10.35;3.90;;;29.50;99.90;;;;;;5031513;28;20026;-74
2023/09/28 09:31:42;;;;;;;10.73;5.15;;;29.50;99.90;;;;;;5031392;28;20033;-73
2023/09/28 09:34:14;;;;;;;15.52;5.88;;;29.10;99.90;;;;;;5031718;28;20056;-73
2023/09/28 09:36:43;;;;;;;16.63;6.20;;;29.00;99.90;;;;;;5031115;28;20411;-74
2023/09/28 09:39:29;;;;;;;12.30;6.32;;;29.00;99.90;;;;;;5031216;28;20037;-73
2023/09/28 09:41:58;;;;;;;12.30;5.95;;;29.00;99.90;;;;;;5029762;28;20029;-73
2023/09/28 09:44:25;;;;;;;14.60;5.75;;;29.10;99.90;;;;;;5030978;28;20404;-73
2023/09/28 09:46:56;;;;;;;16.13;5.60;;;29.00;99.90;;;;;;5031237;28;20033;-73
2023/09/28 09:49:24;;;;;;;12.32;4.80;;;28.90;99.90;;;;;;5030998;28;20531;-73
2023/09/28 09:51:50;;;;;;;18.85;4.60;;;29.10;99.90;;;;;;5030924;28;20496;-75
2023/09/28 09:54:17;;;;;;;;;;;29.10;99.90;;;;;;5030142;28;20117;-73
2023/09/28 09:56:48;;;;;;;18.25;4.13;;;29.00;99.90;;;;;;5030893;28;19980;-72
2023/09/28 09:59:20;;;;;;;16.58;4.30;;;28.90;99.90;;;;;;5030977;28;20125;-72
2023/09/28 10:01:53;;;;;;;11.32;4.30;;;28.80;99.90;;;;;;5031160;28;20093;-73
2023/09/28 10:04:22;;;;;;;14.77;5.00;;;28.90;99.90;;;;;;5030934;28;20037;-73
2023/09/28 10:06:56;;;;;;;13.43;4.53;;;29.20;99.90;;;;;;5031392;28;20021;-73
2023/09/28 10:09:23;;;;;;;19.75;4.30;;;29.40;99.90;;;;;;5031275;28;20025;-73
2023/09/28 10:11:50;;;;;;;11.02;3.92;;;29.60;99.90;;;;;;5031108;28;20036;-75
2023/09/28 10:14:21;;;;;;;11.10;3.97;;;29.40;99.90;;;;;;5030655;28;20053;-73
2023/09/28 10:16:53;;;;;;;17.95;4.20;;;29.40;99.90;;;;;;5030798;28;20029;-74
2023/09/28 10:19:21;;;;;;;11.23;3.67;;;29.40;99.90;;;;;;5029349;28;20397;-73
2023/09/28 10:21:51;;;;;;;13.27;4.40;;;29.40;99.90;;;;;;5031149;28;20065;-73
2023/09/28 10:24:17;;;;;;;17.38;4.35;;;29.70;99.90;;;;;;5031313;28;20041;-74
2023/09/28 10:26:50;;;;;;;18.15;4.28;;;29.70;99.90;;;;;;5031911;28;20017;-73
2023/09/28 10:29:30;;;;;;;14.57;3.53;;;29.80;99.90;;;;;;5031400;28;20087;-74
2023/09/28 10:31:57;;;;;;;18.30;3.90;;;30.10;99.90;;;;;;5031198;28;20048;-73
2023/09/28 10:34:27;;;;;;;9.15;3.47;;;30.00;99.90;;;;;;5032117;28;20026;-73
2023/09/28 10:37:13;;;;;;;13.15;3.88;;;29.90;99.90;;;;;;5033635;28;20469;-73
2023/09/28 10:39:41;;;;;;;12.65;3.72;;;29.70;99.90;;;;;;5035068;28;20029;-74
2023/09/28 10:42:10;;;;;;;15.85;4.20;;;29.80;99.90;;;;;;5035039;28;20116;-74
2023/09/28 10:44:52;;;;;;;24.25;4.57;;;29.50;99.90;;;;;;5034556;28;20041;-73
2023/09/28 10:47:20;;;;;;;14.32;4.43;;;29.30;99.90;;;;;;5035040;28;20068;-73
2023/09/28 10:49:48;;;;;;;14.10;4.18;;;29.30;99.90;;;;;;5034655;28;20041;-73
2023/09/28 10:52:16;;;;;;;10.95;4.30;;;29.40;99.90;;;;;;5033226;28;20108;-72
2023/09/28 10:54:44;;;;;;;10.73;4.88;;;29.20;99.90;;;;;;5034728;28;20077;-74
2023/09/28 10:57:11;;;;;;;11.30;4.43;;;29.30;99.90;;;;;;5033500;28;20017;-74
2023/09/28 10:59:37;;;;;;;;;;;28.90;99.90;;;;;;5034618;28;20029;-74
2023/09/28 11:02:04;;;;;;;10.90;4.18;;;28.90;99.90;;;;;;5033064;28;19905;-73
2023/09/28 11:04:31;;;;;;;15.52;4.82;;;28.90;99.90;;;;;;5034098;28;20095;-74
2023/09/28 11:07:00;;;;;;;7.57;4.40;;;28.80;99.90;;;;;;5033060;28;20406;-72
2023/09/28 11:09:29;;;;;;;13.13;4.70;;;29.00;99.90;;;;;;5034606;28;20036;-73
2023/09/28 11:11:55;;;;;;;30.00;5.05;;;29.20;99.90;;;;;;5034435;28;20117;-73
2023/09/28 11:14:26;;;;;;;13.32;4.50;;;29.10;99.90;;;;;;5034187;28;20427;-73
2023/09/28 11:16:53;;;;;;;9.85;4.28;;;29.20;99.90;;;;;;5033985;28;20108;-73
2023/09/28 11:19:20;;;;;;;13.27;4.18;;;29.00;99.90;;;;;;5034555;28;20037;-73
2023/09/28 11:21:46;;;;;;;12.48;4.57;;;28.90;99.90;;;;;;5034576;28;20029;-73
2023/09/28 11:24:12;;;;;;;;;;;28.50;99.90;;;;;;5035549;28;20061;-72
2023/09/28 11:26:42;;;;;;;7.57;4.20;;;28.60;99.90;;;;;;5034513;28;20317;-74
2023/09/28 11:29:10;;;;;;;14.07;5.72;;;28.70;99.90;;;;;;5034185;28;20029;-72
2023/09/28 11:31:37;;;;;;;15.13;5.53;;;28.70;99.90;;;;;;5032805;28;20022;-72
2023/09/28 11:34:03;;;;;;;12.68;5.50;;;28.80;99.90;;;;;;5034154;28;20350;-73
2023/09/28 11:36:29;;;;;;;14.10;4.75;;;28.90;99.90;;;;;;5034482;28;20437;-73
2023/09/28 11:38:56;;;;;;;18.38;8.30;;;29.20;99.90;;;;;;5033468;28;20474;-73
2023/09/28 11:41:26;;;;;;;10.15;4.97;;;29.30;99.90;;;;;;5032933;28;20410;-73
2023/09/28 11:43:59;;;;;;;13.82;5.50;;;29.30;99.90;;;;;;5032764;28;20470;-74
2023/09/28 11:46:27;;;;;;;10.30;4.80;;;29.30;99.90;;;;;;5032736;28;20034;-73
2023/09/28 11:49:11;;;;;;;9.07;4.07;;;29.50;99.90;;;;;;5034040;28;20514;-73
2023/09/28 11:51:39;;;;;;;12.65;4.70;;;29.40;99.90;;;;;;5034588;28;20041;-72
2023/09/28 11:54:09;;;;;;;11.10;5.03;;;29.20;99.90;;;;;;5034523;28;20029;-73
2023/09/28 11:56:36;;;;;;;10.00;5.57;;;29.30;99.90;;;;;;5034336;28;20030;-73
2023/09/28 11:59:02;;;;;;;10.00;4.70;;;29.30;99.90;;;;;;5033680;28;20442;-73
2023/09/28 12:01:29;;;;;;;12.70;5.25;;;29.20;99.90;;;;;;5034170;28;20093;-72
2023/09/28 12:03:57;;;;;;;13.52;5.20;;;28.80;99.90;;;;;;5033216;28;20135;-73
2023/09/28 12:06:23;;;;;;;30.48;5.82;;;28.80;99.90;;;;;;5033904;28;20470;-72
2023/09/28 12:08:49;;;;;;;27.33;5.30;;;29.00;99.90;;;;;;5034219;28;20036;-73
2023/09/28 12:11:15;;;;;;;24.85;5.72;;;28.90;99.90;;;;;;5034385;28;20022;-73
2023/09/28 12:13:42;;;;;;;10.45;5.28;;;28.90;99.90;;;;;;5032656;28;20026;-73
2023/09/28 12:16:08;;;;;;;12.65;5.47;;;28.80;99.90;;;;;;5033844;28;20116;-73
2023/09/28 12:18:35;;;;;;;15.73;5.65;;;28.90;99.90;;;;;;5034927;28;20025;-72
2023/09/28 12:21:02;;;;;;;9.73;5.18;;;29.00;99.90;;;;;;5034956;28;20029;-73
2023/09/28 12:23:28;;;;;;;15.38;6.18;;;29.20;99.90;;;;;;5034903;28;20025;-73
2023/09/28 12:25:57;;;;;;;;;;;29.30;99.90;;;;;;5034929;28;20086;-73
2023/09/28 12:28:23;;;;;;;12.43;5.07;;;29.20;99.90;;;;;;5034404;28;19912;-72
2023/09/28 12:30:49;;;;;;;9.60;4.65;;;29.20;99.90;;;;;;5034276;28;20029;-75
2023/09/28 12:33:15;;;;;;;18.00;5.63;;;29.30;99.90;;;;;;5034043;28;20022;-73
2023/09/28 12:35:42;;;;;;;13.13;4.90;;;29.30;99.90;;;;;;5034584;28;20018;-73
2023/09/28 12:38:09;;;;;;;16.20;5.38;;;29.40;99.90;;;;;;5034069;28;20029;-73
2023/09/28 12:40:35;;;;;;;14.20;5.00;;;29.40;99.90;;;;;;5034212;28;20030;-73
2023/09/28 12:43:04;;;;;;;15.80;5.35;;;29.20;99.90;;;;;;5033766;28;20049;-73
2023/09/28 12:45:34;;;;;;;12.70;4.47;;;29.00;99.90;;;;;;5033607;28;20052;-73
2023/09/28 12:48:05;;;;;;;14.15;4.82;;;28.90;99.90;;;;;;5033418;28;20052;-73